createdAt,value
2023-03-02T00:02:22.553Z,46.60
2023-03-02T00:04:59.143Z,46.28
2023-03-02T00:07:35.159Z,49.67
2023-03-02T00:10:08.052Z,46.80
2023-03-02T00:12:41.081Z,49.38
2023-03-02T00:15:13.693Z,57.08
2023-03-02T00:17:46.579Z,45.38
2023-03-02T00:20:19.206Z,37.38
2023-03-02T00:22:52.147Z,27.65
2023-03-02T00:25:24.814Z,48.85
2023-03-02T00:27:58.200Z,53.92
2023-03-02T00:30:30.832Z,53.90
2023-03-02T00:33:03.813Z,48.17
2023-03-02T00:35:41.027Z,42.33
2023-03-02T00:38:14.049Z,50.03
2023-03-02T00:40:48.781Z,47.72
2023-03-02T00:43:27.298Z,43.45
2023-03-02T00:45:59.888Z,45.47
2023-03-02T00:48:33.003Z,47.92
2023-03-02T00:51:06.612Z,52.00
2023-03-02T00:53:40.295Z,44.88
2023-03-02T00:56:13.145Z,29.58
2023-03-02T00:58:46.083Z,43.42
2023-03-02T01:01:18.922Z,43.92
2023-03-02T01:03:59.585Z,45.38
2023-03-02T01:06:32.621Z,42.90
2023-03-02T01:09:06.048Z,53.97
2023-03-02T01:11:38.924Z,44.92
2023-03-02T01:14:11.844Z,43.55
2023-03-02T01:16:44.957Z,42.67
2023-03-02T01:19:18.063Z,52.38
2023-03-02T01:21:50.765Z,48.55
2023-03-02T01:24:23.844Z,56.25
2023-03-02T01:26:56.511Z,53.50
2023-03-02T01:29:29.400Z,50.13
2023-03-02T01:32:02.377Z,53.58
2023-03-02T01:34:35.837Z,54.90
2023-03-02T01:37:08.549Z,51.60
2023-03-02T01:39:41.403Z,49.80
2023-03-02T01:42:14.149Z,47.30
2023-03-02T01:44:49.063Z,43.28
2023-03-02T01:47:25.705Z,47.05
2023-03-02T01:50:21.198Z,48.80
2023-03-02T01:52:55.376Z,57.58
2023-03-02T01:55:31.907Z,65.18
2023-03-02T01:58:05.822Z,53.63
2023-03-02T02:00:39.967Z,53.35
2023-03-02T02:03:23.444Z,53.10
2023-03-02T02:06:18.173Z,59.50
2023-03-02T02:08:52.528Z,48.72
2023-03-02T02:11:26.120Z,48.15
2023-03-02T02:14:00.411Z,50.45
2023-03-02T02:16:35.203Z,39.22
2023-03-02T02:19:29.603Z,51.53
2023-03-02T02:22:03.189Z,52.83
2023-03-02T02:24:46.311Z,54.88
2023-03-02T02:27:19.148Z,27.60
2023-03-02T02:29:52.904Z,56.05
2023-03-02T02:32:30.439Z,36.25
2023-03-02T02:35:27.348Z,43.85
2023-03-02T02:38:06.755Z,47.67
2023-03-02T02:41:07.428Z,46.92
2023-03-02T02:43:40.312Z,19.02
2023-03-02T02:46:13.200Z,32.80
2023-03-02T02:48:46.202Z,32.00
2023-03-02T02:51:23.792Z,31.33
2023-03-02T02:54:03.769Z,38.17
2023-03-02T02:56:40.407Z,20.25
2023-03-02T02:59:34.081Z,28.38
2023-03-02T03:02:07.045Z,33.80
2023-03-02T03:04:39.946Z,31.80
2023-03-02T03:07:21.945Z,22.30
2023-03-02T03:10:20.426Z,22.67
2023-03-02T03:12:53.113Z,18.85
2023-03-02T03:15:26.034Z,21.38
2023-03-02T03:17:59.406Z,21.52
2023-03-02T03:20:33.044Z,15.82
2023-03-02T03:23:05.606Z,23.73
2023-03-02T03:25:39.322Z,28.38
2023-03-02T03:28:13.042Z,23.65
2023-03-02T03:30:45.989Z,20.30
2023-03-02T03:33:18.645Z,22.50
2023-03-02T03:35:51.862Z,27.70
2023-03-02T03:38:24.594Z,28.33
2023-03-02T03:40:57.779Z,25.50
2023-03-02T03:43:30.433Z,22.02
2023-03-02T03:46:03.472Z,20.85
2023-03-02T03:48:36.212Z,16.60
2023-03-02T03:51:10.078Z,23.85
2023-03-02T03:53:42.702Z,22.27
2023-03-02T03:56:15.609Z,25.52
2023-03-02T03:58:48.258Z,23.05
2023-03-02T04:01:21.238Z,20.92
2023-03-02T04:03:53.915Z,17.45
2023-03-02T04:06:26.834Z,25.10
2023-03-02T04:09:04.810Z,19.02
2023-03-02T04:11:41.017Z,21.20
2023-03-02T04:14:14.992Z,19.40
2023-03-02T04:16:48.492Z,19.92
2023-03-02T04:19:21.850Z,17.45
2023-03-02T04:21:55.795Z,23.05
2023-03-02T04:24:28.633Z,25.23
2023-03-02T04:27:01.673Z,23.45
2023-03-02T04:29:34.632Z,22.30
2023-03-02T04:32:08.358Z,12.45
2023-03-02T04:34:41.438Z,21.80
2023-03-02T04:37:16.055Z,20.80
2023-03-02T04:39:51.622Z,15.05
2023-03-02T04:42:24.593Z,12.05
2023-03-02T04:44:57.184Z,8.95
2023-03-02T04:47:30.265Z,12.18
2023-03-02T04:50:02.961Z,7.15
2023-03-02T04:52:35.900Z,8.15
2023-03-02T04:55:09.074Z,9.95
2023-03-02T04:57:41.951Z,14.63
2023-03-02T05:00:16.972Z,8.70
2023-03-02T05:02:50.235Z,11.10
2023-03-02T05:05:25.318Z,8.63
2023-03-02T05:08:01.195Z,9.18
2023-03-02T05:10:33.772Z,20.33
2023-03-02T05:13:06.886Z,13.13
2023-03-02T05:15:43.628Z,13.50
2023-03-02T05:18:16.527Z,18.10
2023-03-02T05:20:50.433Z,19.88
2023-03-02T05:23:27.639Z,20.83
2023-03-02T05:26:00.431Z,19.75
2023-03-02T05:28:33.619Z,14.23
2023-03-02T05:31:06.706Z,10.93
2023-03-02T05:33:39.664Z,14.10
2023-03-02T05:36:12.265Z,13.05
2023-03-02T05:38:45.264Z,4.80
2023-03-02T05:41:18.032Z,7.65
2023-03-02T05:43:51.612Z,4.00
2023-03-02T05:46:24.439Z,5.45
2023-03-02T05:48:57.359Z,3.92
2023-03-02T05:51:29.895Z,3.22
2023-03-02T05:54:02.722Z,4.70
2023-03-02T05:56:35.626Z,16.45
2023-03-02T05:59:09.072Z,3.53
2023-03-02T06:01:41.691Z,7.57
2023-03-02T06:04:14.528Z,12.32
2023-03-02T06:06:47.103Z,6.75
2023-03-02T06:09:22.495Z,6.10
2023-03-02T06:12:01.000Z,14.45
2023-03-02T06:14:34.495Z,6.35
2023-03-02T06:17:07.061Z,6.60
2023-03-02T06:19:39.898Z,4.57
2023-03-02T06:22:15.546Z,5.40
2023-03-02T06:24:48.366Z,9.63
2023-03-02T06:27:28.246Z,8.65
2023-03-02T06:30:07.220Z,7.40
2023-03-02T06:32:40.374Z,4.20
2023-03-02T06:35:14.608Z,6.70
2023-03-02T06:37:47.541Z,5.60
2023-03-02T06:40:21.832Z,4.90
2023-03-02T06:43:02.112Z,11.73
2023-03-02T06:46:01.580Z,2.22
2023-03-02T06:48:34.680Z,5.43
2023-03-02T06:51:08.560Z,6.72
2023-03-02T06:53:45.881Z,5.15
2023-03-02T06:56:18.566Z,7.18
2023-03-02T06:58:51.739Z,3.83
2023-03-02T07:01:35.490Z,4.28
2023-03-02T07:04:08.772Z,2.78
2023-03-02T07:06:41.474Z,3.88
2023-03-02T07:09:14.445Z,4.45
2023-03-02T07:11:47.138Z,6.22
2023-03-02T07:14:20.128Z,6.05
2023-03-02T07:16:53.473Z,4.60
2023-03-02T07:19:26.687Z,7.78
2023-03-02T07:21:59.470Z,7.00
2023-03-02T07:24:35.298Z,6.38
2023-03-02T07:27:07.973Z,3.67
2023-03-02T07:29:41.025Z,7.35
2023-03-02T07:32:13.959Z,2.80
2023-03-02T07:34:46.880Z,3.35
2023-03-02T07:37:19.549Z,11.35
2023-03-02T07:39:52.665Z,3.25
2023-03-02T07:42:25.372Z,6.53
2023-03-02T07:44:58.585Z,2.22
2023-03-02T07:47:32.012Z,4.88
2023-03-02T07:50:05.933Z,4.70
2023-03-02T07:52:38.566Z,5.00
2023-03-02T07:55:11.636Z,2.92
2023-03-02T07:57:44.206Z,4.70
2023-03-02T08:00:18.394Z,4.38
2023-03-02T08:02:51.070Z,5.57
2023-03-02T08:05:24.439Z,4.70
2023-03-02T08:07:56.946Z,10.52
2023-03-02T08:10:29.745Z,5.38
2023-03-02T08:13:03.360Z,3.47
2023-03-02T08:15:36.299Z,5.63
2023-03-02T08:18:08.956Z,4.05
2023-03-02T08:20:41.875Z,7.63
2023-03-02T08:23:14.483Z,5.90
2023-03-02T08:25:47.473Z,6.20
2023-03-02T08:28:21.329Z,10.73
2023-03-02T08:30:59.164Z,6.88
2023-03-02T08:33:32.022Z,5.45
2023-03-02T08:36:12.907Z,5.03
2023-03-02T08:38:49.151Z,5.90
2023-03-02T08:41:23.828Z,9.15
2023-03-02T08:43:56.666Z,5.78
2023-03-02T08:46:30.907Z,9.95
2023-03-02T08:49:04.056Z,4.80
2023-03-02T08:51:37.264Z,7.95
2023-03-02T08:54:11.064Z,6.47
2023-03-02T08:56:44.732Z,8.13
2023-03-02T08:59:18.340Z,4.68
2023-03-02T09:01:51.445Z,8.02
2023-03-02T09:04:24.230Z,4.28
2023-03-02T09:06:57.433Z,3.97
2023-03-02T09:09:30.463Z,6.50
2023-03-02T09:12:03.929Z,12.55
2023-03-02T09:14:36.961Z,3.92
2023-03-02T09:17:13.073Z,5.88
2023-03-02T09:19:46.459Z,9.70
2023-03-02T09:22:19.886Z,3.38
2023-03-02T09:24:52.711Z,5.30
2023-03-02T09:27:26.043Z,7.63
2023-03-02T09:29:58.891Z,8.68
2023-03-02T09:32:32.285Z,7.57
2023-03-02T09:35:05.271Z,7.43
2023-03-02T09:37:39.122Z,6.90
2023-03-02T09:40:32.576Z,3.42
2023-03-02T09:43:39.471Z,7.50
2023-03-02T09:46:20.740Z,7.45
2023-03-02T09:49:05.384Z,4.63
2023-03-02T09:51:43.692Z,10.40
2023-03-02T09:54:25.516Z,4.38
2023-03-02T09:56:59.638Z,8.45
2023-03-02T09:59:51.923Z,10.30
2023-03-02T10:02:36.440Z,6.75
2023-03-02T10:05:28.678Z,7.70
2023-03-02T10:08:01.725Z,7.32
2023-03-02T10:10:40.880Z,6.45
2023-03-02T10:13:16.827Z,6.03
2023-03-02T10:16:01.387Z,5.47
2023-03-02T10:19:15.575Z,9.68
2023-03-02T10:21:58.382Z,8.38
2023-03-02T10:24:39.046Z,5.03
2023-03-02T10:27:38.549Z,9.02
2023-03-02T10:30:34.070Z,8.75
2023-03-02T10:33:29.791Z,7.10
2023-03-02T10:36:05.845Z,2.45
2023-03-02T10:38:39.043Z,8.52
2023-03-02T10:41:15.928Z,10.48
2023-03-02T10:44:06.524Z,2.78
2023-03-02T10:46:44.932Z,7.72
2023-03-02T10:49:32.659Z,8.90
2023-03-02T10:52:12.933Z,10.13
2023-03-02T10:54:47.463Z,10.38
2023-03-02T10:57:37.050Z,16.85
2023-03-02T11:00:22.503Z,5.65
2023-03-02T11:03:01.367Z,10.05
2023-03-02T11:05:39.658Z,9.18
2023-03-02T11:08:19.134Z,8.93
2023-03-02T11:11:00.933Z,7.70
2023-03-02T11:13:37.427Z,9.30
2023-03-02T11:16:19.757Z,9.82
2023-03-02T11:18:55.487Z,7.55
2023-03-02T11:21:35.794Z,9.93
2023-03-02T11:24:14.581Z,6.05
2023-03-02T11:26:59.745Z,7.10
2023-03-02T11:29:53.220Z,9.32
2023-03-02T11:32:34.688Z,11.93
2023-03-02T11:35:10.452Z,7.63
2023-03-02T11:37:50.670Z,10.85
2023-03-02T11:40:38.650Z,5.40
2023-03-02T11:43:13.463Z,4.82
2023-03-02T11:45:48.918Z,7.47
2023-03-02T11:48:39.699Z,12.23
2023-03-02T11:53:53.670Z,9.27
2023-03-02T11:56:32.112Z,8.93
2023-03-02T11:59:12.261Z,2.08
2023-03-02T12:01:48.378Z,7.88
2023-03-02T12:04:35.094Z,9.98
2023-03-02T12:07:23.175Z,9.65
2023-03-02T12:10:04.082Z,10.98
2023-03-02T12:12:42.995Z,9.90
2023-03-02T12:15:36.631Z,13.70
2023-03-02T12:18:21.673Z,11.88
2023-03-02T12:21:02.567Z,7.97
2023-03-02T12:23:41.216Z,11.98
2023-03-02T12:26:20.503Z,7.70
2023-03-02T12:29:11.059Z,8.45
2023-03-02T12:31:46.257Z,11.32
2023-03-02T12:34:25.358Z,8.05
2023-03-02T12:37:17.330Z,13.73
2023-03-02T12:40:19.107Z,11.50
2023-03-02T12:43:33.131Z,7.65
2023-03-02T12:46:28.474Z,5.28
2023-03-02T12:49:13.684Z,7.93
2023-03-02T12:52:00.400Z,8.40
2023-03-02T12:54:34.934Z,6.88
2023-03-02T12:57:14.061Z,6.95
2023-03-02T12:59:55.868Z,6.10
2023-03-02T13:02:34.722Z,13.40
2023-03-02T13:05:09.188Z,7.10
2023-03-02T13:07:47.595Z,9.73
2023-03-02T13:10:40.041Z,8.48
2023-03-02T13:13:19.890Z,13.35
2023-03-02T13:15:54.644Z,9.98
2023-03-02T13:45:34.776Z,4.85
2023-03-02T13:48:17.677Z,8.13
2023-03-02T13:51:02.968Z,9.18
2023-03-02T13:53:38.124Z,9.77
2023-03-02T13:56:17.783Z,11.10
2023-03-02T13:58:50.681Z,15.35
2023-03-02T14:01:25.619Z,10.10
2023-03-02T14:04:00.537Z,13.88
2023-03-02T14:06:33.318Z,13.57
2023-03-02T14:09:06.955Z,10.05
2023-03-02T14:14:26.464Z,16.55
2023-03-02T14:19:52.497Z,8.90
2023-03-02T14:22:27.559Z,12.00
2023-03-02T14:25:02.932Z,11.68
2023-03-02T14:27:36.177Z,12.25
2023-03-02T14:30:22.970Z,10.30
2023-03-02T14:32:58.285Z,8.10
2023-03-02T14:35:30.751Z,11.27
2023-03-02T14:38:03.867Z,12.63
2023-03-02T14:40:36.706Z,14.15
2023-03-02T14:43:10.085Z,12.73
2023-03-02T14:45:42.768Z,11.35
2023-03-02T14:48:18.526Z,11.48
2023-03-02T14:50:54.729Z,10.65
2023-03-02T14:53:31.587Z,8.68
2023-03-02T14:56:07.444Z,17.13
2023-03-02T14:58:43.551Z,14.15
2023-03-02T15:01:16.579Z,10.75
2023-03-02T15:03:49.925Z,10.48
2023-03-02T15:06:35.274Z,14.52
2023-03-02T15:09:08.576Z,11.27
2023-03-02T15:11:41.126Z,12.18
2023-03-02T15:14:14.031Z,9.95
2023-03-02T15:16:46.914Z,15.13
2023-03-02T15:19:20.240Z,9.50
2023-03-02T15:21:53.012Z,10.77
2023-03-02T15:24:27.230Z,12.38
2023-03-02T15:26:59.684Z,7.30
2023-03-02T15:29:32.468Z,11.95
2023-03-02T15:32:05.278Z,14.98
2023-03-02T15:34:38.049Z,16.58
2023-03-02T15:37:13.676Z,13.68
2023-03-02T15:39:46.441Z,12.00
2023-03-02T15:42:18.965Z,13.45
2023-03-02T15:44:51.890Z,8.98
2023-03-02T15:47:40.133Z,17.75
2023-03-02T15:50:20.631Z,10.77
2023-03-02T15:52:59.006Z,10.30
2023-03-02T15:55:34.370Z,11.57
2023-03-02T15:58:22.012Z,12.27
2023-03-02T16:01:10.445Z,11.55
2023-03-02T16:03:45.403Z,8.43
2023-03-02T16:06:18.434Z,10.50
2023-03-02T16:08:51.025Z,10.82
2023-03-02T16:11:24.144Z,11.65
2023-03-02T16:13:58.101Z,9.57
2023-03-02T16:16:31.193Z,12.27
2023-03-02T16:19:03.896Z,13.10
2023-03-02T16:29:36.366Z,9.27
2023-03-02T16:32:10.093Z,13.43
2023-03-02T16:34:42.792Z,13.32
2023-03-02T16:37:18.893Z,15.93
2023-03-02T16:39:51.695Z,14.45
2023-03-02T16:42:24.941Z,12.35
2023-03-02T16:44:57.678Z,12.82
2023-03-02T16:47:30.847Z,14.02
2023-03-02T16:50:08.754Z,11.07
2023-03-02T16:52:42.084Z,11.40
2023-03-02T16:55:22.877Z,13.38
2023-03-02T16:57:58.618Z,17.20
2023-03-02T17:00:33.934Z,18.77
2023-03-02T17:03:16.468Z,16.17
2023-03-02T17:05:53.554Z,16.40
2023-03-02T17:08:28.436Z,14.25
2023-03-02T17:11:07.408Z,20.63
2023-03-02T17:14:20.962Z,15.60
2023-03-02T17:20:27.553Z,17.65
2023-03-02T17:23:06.676Z,12.70
2023-03-02T17:25:39.687Z,15.73
2023-03-02T17:28:15.602Z,16.83
2023-03-02T17:30:48.842Z,14.20
2023-03-02T17:33:22.308Z,19.52
2023-03-02T17:35:54.989Z,18.92
2023-03-02T17:38:28.077Z,28.92
2023-03-02T17:41:05.639Z,21.88
2023-03-02T17:43:41.519Z,22.38
2023-03-02T17:46:20.462Z,17.85
2023-03-02T17:48:56.558Z,19.83
2023-03-02T17:51:32.480Z,19.23
2023-03-02T17:54:05.827Z,30.23
2023-03-02T17:56:38.602Z,29.70
2023-03-02T17:59:11.613Z,27.98
2023-03-02T18:01:44.234Z,20.05
2023-03-02T18:04:18.560Z,47.55
2023-03-02T18:06:53.938Z,46.78
2023-03-02T18:09:27.181Z,45.95
2023-03-02T18:12:01.393Z,47.85
2023-03-02T18:14:45.821Z,47.47
2023-03-02T18:17:22.353Z,39.97
2023-03-02T18:20:04.209Z,49.28
2023-03-02T18:22:37.897Z,48.65
2023-03-02T18:25:12.024Z,48.25
2023-03-02T18:27:44.861Z,49.35
2023-03-02T18:30:19.164Z,48.22
2023-03-02T18:32:52.005Z,38.78
2023-03-02T18:35:26.901Z,36.72
2023-03-02T18:38:00.850Z,41.83
2023-03-02T18:40:35.310Z,41.97
2023-03-02T18:43:08.344Z,32.88
2023-03-02T18:45:45.379Z,50.67
2023-03-02T18:48:18.369Z,47.80
2023-03-02T18:50:51.476Z,47.92
2023-03-02T18:53:24.606Z,45.30
2023-03-02T18:56:00.315Z,43.83
2023-03-02T18:58:34.570Z,45.35
2023-03-02T19:01:07.854Z,53.50
2023-03-02T19:03:42.968Z,45.35
2023-03-02T19:06:16.568Z,37.17
2023-03-02T19:08:50.602Z,40.85
2023-03-02T19:11:26.729Z,54.78
2023-03-02T19:13:59.915Z,53.45
2023-03-02T19:16:35.757Z,55.20
2023-03-02T19:19:11.183Z,50.80
2023-03-02T19:21:44.161Z,53.50
2023-03-02T19:24:21.326Z,54.08
2023-03-02T19:26:56.104Z,52.75
2023-03-02T19:29:29.136Z,55.55
2023-03-02T19:32:04.056Z,41.95
2023-03-02T19:34:38.419Z,42.60
2023-03-02T19:37:17.108Z,67.32
2023-03-02T19:39:53.968Z,71.85
2023-03-02T19:42:27.352Z,70.53
2023-03-02T19:45:03.305Z,69.22
2023-03-02T19:47:38.936Z,71.75
2023-03-02T19:50:13.901Z,50.22
2023-03-02T19:52:54.283Z,56.30
2023-03-02T19:55:34.662Z,64.60
2023-03-02T19:58:17.388Z,64.85
2023-03-02T20:01:00.907Z,73.20
2023-03-02T20:03:41.060Z,59.22
2023-03-02T20:06:16.314Z,65.18
2023-03-02T20:08:53.880Z,77.38
2023-03-02T20:11:40.634Z,66.20
2023-03-02T20:14:31.406Z,67.25
2023-03-02T20:17:15.969Z,61.75
2023-03-02T20:19:57.047Z,61.58
2023-03-02T20:22:35.567Z,68.38
2023-03-02T20:25:11.748Z,51.38
2023-03-02T20:27:44.399Z,63.00
2023-03-02T20:30:30.136Z,63.13
2023-03-02T20:33:05.195Z,61.55
2023-03-02T20:35:41.273Z,53.05
2023-03-02T20:38:29.204Z,54.60
2023-03-02T20:41:06.792Z,73.03
2023-03-02T20:43:43.736Z,56.03
2023-03-02T20:46:32.878Z,39.60
2023-03-02T20:49:07.701Z,48.00
2023-03-02T20:51:42.976Z,36.78
2023-03-02T20:54:17.013Z,57.13
2023-03-02T20:56:56.773Z,17.58
2023-03-02T20:59:29.353Z,62.40
2023-03-02T21:02:04.379Z,51.63
2023-03-02T21:04:40.850Z,61.78
2023-03-02T21:07:14.776Z,65.72
2023-03-02T21:09:48.210Z,55.97
2023-03-02T21:12:24.894Z,30.95
2023-03-02T21:14:57.563Z,34.17
2023-03-02T21:17:33.672Z,38.90
2023-03-02T21:20:06.891Z,60.03
2023-03-02T21:22:40.761Z,48.50
2023-03-02T21:25:13.504Z,56.58
2023-03-02T21:27:46.772Z,41.80
2023-03-02T21:30:22.792Z,55.97
2023-03-02T21:32:56.162Z,49.17
2023-03-02T21:35:29.565Z,59.72
2023-03-02T21:38:04.813Z,61.58
2023-03-02T21:40:43.081Z,64.57
2023-03-02T21:43:17.020Z,73.20
2023-03-02T21:45:49.838Z,68.63
2023-03-02T21:48:23.165Z,23.23
2023-03-02T21:50:56.020Z,62.80
2023-03-02T21:53:29.515Z,62.80
2023-03-02T21:56:02.339Z,28.27
2023-03-02T21:58:35.346Z,50.08
2023-03-02T22:01:09.597Z,33.97
2023-03-02T22:03:43.199Z,46.17
2023-03-02T22:06:26.648Z,26.55
2023-03-02T22:08:59.494Z,47.90
2023-03-02T22:11:37.156Z,36.72
2023-03-02T22:14:16.080Z,57.42
2023-03-02T22:16:48.947Z,63.88
2023-03-02T22:19:30.443Z,42.42
2023-03-02T22:22:05.456Z,35.88
2023-03-02T22:24:39.808Z,66.65
2023-03-02T22:27:21.073Z,52.92
2023-03-02T22:29:57.950Z,61.65
2023-03-02T22:32:36.685Z,61.45
2023-03-02T22:35:25.241Z,29.38
2023-03-02T22:38:07.030Z,52.83
2023-03-02T22:40:41.354Z,33.20
2023-03-02T22:43:29.275Z,56.58
2023-03-02T22:46:08.169Z,36.38
2023-03-02T22:48:41.911Z,57.05
2023-03-02T22:51:23.493Z,20.42
2023-03-02T22:53:58.443Z,37.00
2023-03-02T22:56:37.374Z,38.45
2023-03-02T22:59:24.787Z,32.03
2023-03-02T23:02:02.750Z,55.63
2023-03-02T23:04:39.434Z,58.78
2023-03-02T23:07:22.160Z,27.90
2023-03-02T23:09:54.614Z,38.58
2023-03-02T23:12:28.137Z,47.88
2023-03-02T23:15:00.631Z,59.70
2023-03-02T23:17:38.847Z,53.72
2023-03-02T23:20:14.374Z,58.88
2023-03-02T23:22:47.163Z,40.97
2023-03-02T23:25:19.584Z,48.90
2023-03-02T23:27:52.324Z,57.83
2023-03-02T23:30:24.718Z,49.65
2023-03-02T23:32:57.467Z,50.15
2023-03-02T23:35:30.074Z,55.45
2023-03-02T23:38:02.790Z,52.40
2023-03-02T23:40:35.282Z,48.13
2023-03-02T23:43:07.944Z,29.42
2023-03-02T23:45:40.582Z,55.67
2023-03-02T23:48:13.353Z,48.65
2023-03-02T23:50:45.953Z,56.33
2023-03-02T23:53:18.995Z,60.28
2023-03-02T23:55:54.664Z,28.38
2023-03-02T23:58:27.848Z,46.13
